createdAt,value
2017-06-02T00:00:01.707Z,0
2017-06-02T00:01:01.697Z,0
2017-06-02T00:02:01.057Z,0
2017-06-02T00:03:01.990Z,0
2017-06-02T00:04:01.663Z,0
2017-06-02T00:05:01.346Z,0
2017-06-02T00:06:02.009Z,0
2017-06-02T00:07:01.627Z,0
2017-06-02T00:08:01.926Z,0
2017-06-02T00:09:01.309Z,0
2017-06-02T00:10:01.600Z,0
2017-06-02T00:11:01.917Z,0
2017-06-02T00:12:01.887Z,0
2017-06-02T00:13:01.882Z,0
2017-06-02T00:14:01.559Z,0
2017-06-02T00:15:01.547Z,0
2017-06-02T00:16:02.050Z,0
2017-06-02T00:17:01.839Z,0
2017-06-02T00:18:01.198Z,0
2017-06-02T00:19:00.940Z,0
2017-06-02T00:20:01.807Z,0
2017-06-02T00:21:01.163Z,0
2017-06-02T00:22:01.157Z,0
2017-06-02T00:23:01.462Z,0
2017-06-02T00:24:01.761Z,0
2017-06-02T00:25:01.437Z,0
2017-06-02T00:26:01.485Z,0
2017-06-02T00:27:01.416Z,0
2017-06-02T00:28:01.409Z,0
2017-06-02T00:29:01.397Z,0
2017-06-02T00:30:01.701Z,0
2017-06-02T00:31:01.374Z,0
2017-06-02T00:32:00.732Z,0
2017-06-02T00:33:00.753Z,0
2017-06-02T00:34:01.349Z,0
2017-06-02T00:35:01.336Z,0
2017-06-02T00:36:01.007Z,0
2017-06-02T00:37:01.311Z,0
2017-06-02T00:38:01.296Z,0
2017-06-02T00:39:01.296Z,0
2017-06-02T00:40:00.963Z,0
2017-06-02T00:41:00.639Z,0
2017-06-02T00:42:01.577Z,0
2017-06-02T00:43:01.242Z,0
2017-06-02T00:44:00.918Z,0
2017-06-02T00:45:00.910Z,0
2017-06-02T00:46:00.900Z,0
2017-06-02T00:47:00.882Z,0
2017-06-02T00:48:01.187Z,0
2017-06-02T00:49:01.188Z,0
2017-06-02T00:50:00.546Z,0
2017-06-02T00:51:00.847Z,0
2017-06-02T00:52:01.147Z,0
2017-06-02T00:53:00.824Z,0
2017-06-02T00:54:01.123Z,0
2017-06-02T00:55:01.114Z,0
2017-06-02T00:56:00.797Z,0
2017-06-02T00:57:00.776Z,0
2017-06-02T00:58:01.079Z,0
2017-06-02T00:59:01.067Z,0
2017-06-02T01:00:00.746Z,0
2017-06-02T01:01:01.102Z,0
2017-06-02T01:02:01.358Z,0
2017-06-02T01:03:00.710Z,0
2017-06-02T01:04:00.700Z,0
2017-06-02T01:05:01.005Z,0
2017-06-02T01:06:01.002Z,0
2017-06-02T01:07:00.984Z,0
2017-06-02T01:08:00.966Z,0
2017-06-02T01:09:00.960Z,0
2017-06-02T01:10:00.955Z,0
2017-06-02T01:11:00.941Z,0
2017-06-02T01:12:00.614Z,0
2017-06-02T01:13:00.603Z,0
2017-06-02T01:14:00.901Z,0
2017-06-02T01:15:00.268Z,0
2017-06-02T01:16:00.570Z,0
2017-06-02T01:17:00.879Z,0
2017-06-02T01:18:01.176Z,0
2017-06-02T01:19:00.847Z,0
2017-06-02T01:20:00.865Z,0
2017-06-02T01:21:00.832Z,0
2017-06-02T01:22:00.508Z,0
2017-06-02T01:23:00.802Z,0
2017-06-02T01:24:01.108Z,0
2017-06-02T01:25:00.525Z,0
2017-06-02T01:26:00.144Z,0
2017-06-02T01:27:00.443Z,0
2017-06-02T01:28:00.748Z,0
2017-06-02T01:29:00.741Z,0
2017-06-02T01:30:01.044Z,0
2017-06-02T01:31:00.722Z,0
2017-06-02T01:32:01.014Z,0
2017-06-02T01:33:00.376Z,0
2017-06-02T01:34:00.686Z,0
2017-06-02T01:35:00.674Z,0
2017-06-02T01:36:00.343Z,0
2017-06-02T01:37:00.652Z,0
2017-06-02T01:38:00.633Z,0
2017-06-02T01:39:00.942Z,0
2017-06-02T01:40:00.928Z,0
2017-06-02T01:41:00.977Z,0
2017-06-02T01:42:00.273Z,0
2017-06-02T01:43:00.264Z,0
2017-06-02T01:44:00.887Z,0
2017-06-02T01:45:00.245Z,0
2017-06-02T01:46:00.548Z,0
2017-06-02T01:47:00.846Z,0
2017-06-02T01:48:00.838Z,0
2017-06-02T01:49:00.825Z,0
2017-06-02T01:50:00.506Z,0
2017-06-02T01:51:00.187Z,0
2017-06-02T01:51:59.863Z,0
2017-06-02T01:53:00.781Z,0
2017-06-02T01:54:00.138Z,0
2017-06-02T01:55:00.760Z,0
2017-06-02T01:56:00.121Z,0
2017-06-02T01:57:00.107Z,0
2017-06-02T01:57:59.780Z,0
2017-06-02T01:59:00.393Z,0
2017-06-02T02:00:00.072Z,0
2017-06-02T02:01:00.380Z,0
2017-06-02T02:02:00.057Z,0
2017-06-02T02:03:00.039Z,0
2017-06-02T02:04:00.029Z,0
2017-06-02T02:05:00.334Z,0
2017-06-02T02:06:00.327Z,0
2017-06-02T02:06:59.996Z,0
2017-06-02T02:07:59.993Z,0
2017-06-02T02:09:00.289Z,0
2017-06-02T02:10:00.277Z,0
2017-06-02T02:10:59.946Z,0
2017-06-02T02:12:00.614Z,0
2017-06-02T02:13:00.568Z,0
2017-06-02T02:14:00.542Z,0
2017-06-02T02:15:00.216Z,0
2017-06-02T02:16:00.094Z,0
2017-06-02T02:17:00.509Z,0
2017-06-02T02:18:00.190Z,0
2017-06-02T02:19:00.172Z,0
2017-06-02T02:19:59.842Z,0
2017-06-02T02:21:00.147Z,0
2017-06-02T02:22:00.139Z,0
2017-06-02T02:23:00.128Z,0
2017-06-02T02:23:59.798Z,0
2017-06-02T02:25:00.099Z,0
2017-06-02T02:25:59.782Z,0
2017-06-02T02:26:59.766Z,0
2017-06-02T02:28:00.137Z,0
2017-06-02T02:29:00.373Z,0
2017-06-02T02:29:59.729Z,0
2017-06-02T02:30:59.722Z,0
2017-06-02T02:32:00.025Z,0
2017-06-02T02:32:59.699Z,0
2017-06-02T02:33:59.694Z,0
2017-06-02T02:34:59.675Z,0
2017-06-02T02:36:00.291Z,0
2017-06-02T02:37:00.016Z,0
2017-06-02T02:37:59.957Z,0
2017-06-02T02:38:59.955Z,4
2017-06-02T02:39:59.305Z,4
2017-06-02T02:40:59.608Z,0
2017-06-02T02:42:00.226Z,0
2017-06-02T02:42:59.893Z,4
2017-06-02T02:43:59.886Z,4
2017-06-02T02:44:59.878Z,0
2017-06-02T02:45:59.547Z,4
2017-06-02T02:47:00.166Z,4
2017-06-02T02:47:59.524Z,4
2017-06-02T02:48:59.825Z,8
2017-06-02T02:49:59.823Z,4
2017-06-02T02:50:59.494Z,8
2017-06-02T02:51:59.478Z,8
2017-06-02T02:52:59.464Z,12
2017-06-02T02:53:59.772Z,12
2017-06-02T02:54:59.756Z,12
2017-06-02T02:55:59.441Z,12
2017-06-02T02:56:59.427Z,12
2017-06-02T02:57:59.718Z,16
2017-06-02T02:58:59.397Z,16
2017-06-02T03:00:00.014Z,16
2017-06-02T03:01:00.007Z,20
2017-06-02T03:01:59.677Z,24
2017-06-02T03:02:59.035Z,24
2017-06-02T03:03:59.661Z,28
2017-06-02T03:04:59.958Z,36
2017-06-02T03:05:59.947Z,40
2017-06-02T03:06:59.618Z,44
2017-06-02T03:07:59.296Z,48
2017-06-02T03:08:59.601Z,56
2017-06-02T03:09:59.580Z,56
2017-06-02T03:10:59.259Z,64
2017-06-02T03:11:59.619Z,72
2017-06-02T03:12:59.561Z,76
2017-06-02T03:13:59.225Z,84
2017-06-02T03:14:59.210Z,96
2017-06-02T03:15:59.828Z,104
2017-06-02T03:16:59.823Z,112
2017-06-02T03:17:59.183Z,120
2017-06-02T03:18:59.486Z,124
2017-06-02T03:19:59.473Z,136
2017-06-02T03:20:59.146Z,144
2017-06-02T03:21:59.761Z,156
2017-06-02T03:22:59.754Z,168
2017-06-02T03:23:59.428Z,176
2017-06-02T03:24:59.103Z,188
2017-06-02T03:25:58.777Z,196
2017-06-02T03:26:59.390Z,208
2017-06-02T03:27:59.121Z,220
2017-06-02T03:28:59.375Z,228
2017-06-02T03:29:59.361Z,240
2017-06-02T03:30:59.353Z,248
2017-06-02T03:31:59.655Z,256
2017-06-02T03:32:59.649Z,264
2017-06-02T03:33:59.639Z,284
2017-06-02T03:34:59.306Z,300
2017-06-02T03:35:59.298Z,324
2017-06-02T03:36:58.971Z,348
2017-06-02T03:37:59.274Z,364
2017-06-02T03:38:59.263Z,380
2017-06-02T03:39:59.559Z,396
2017-06-02T03:40:59.242Z,412
2017-06-02T03:41:59.541Z,428
2017-06-02T03:42:59.215Z,464
2017-06-02T03:43:59.206Z,488
2017-06-02T03:44:58.567Z,496
2017-06-02T03:45:59.496Z,496
2017-06-02T03:46:59.171Z,500
2017-06-02T03:47:59.210Z,504
2017-06-02T03:48:59.155Z,516
2017-06-02T03:49:59.143Z,520
2017-06-02T03:50:59.139Z,528
2017-06-02T03:51:58.494Z,540
2017-06-02T03:52:58.785Z,548
2017-06-02T03:53:59.099Z,556
2017-06-02T03:54:59.085Z,560
2017-06-02T03:55:59.073Z,568
2017-06-02T03:56:58.749Z,568
2017-06-02T03:57:59.372Z,576
2017-06-02T03:58:59.048Z,584
2017-06-02T03:59:59.348Z,608
2017-06-02T04:00:59.333Z,632
2017-06-02T04:01:58.695Z,652
2017-06-02T04:02:59.002Z,692
2017-06-02T04:03:58.670Z,732
2017-06-02T04:04:58.664Z,776
2017-06-02T04:05:58.970Z,824
2017-06-02T04:06:59.264Z,868
2017-06-02T04:07:58.941Z,908
2017-06-02T04:08:58.621Z,948
2017-06-02T04:09:59.233Z,980
2017-06-02T04:10:58.916Z,984
2017-06-02T04:11:59.253Z,984
2017-06-02T04:12:58.894Z,1040
2017-06-02T04:13:58.891Z,1104
2017-06-02T04:14:58.872Z,1164
2017-06-02T04:15:59.264Z,1184
2017-06-02T04:16:58.852Z,1208
2017-06-02T04:17:58.867Z,1216
2017-06-02T04:18:58.830Z,1244
2017-06-02T04:19:58.181Z,1288
2017-06-02T04:20:59.117Z,1344
2017-06-02T04:21:58.480Z,1380
2017-06-02T04:22:59.158Z,1388
2017-06-02T04:23:58.453Z,1396
2017-06-02T04:24:58.444Z,1408
2017-06-02T04:25:58.755Z,1432
2017-06-02T04:26:58.745Z,1444
2017-06-02T04:27:59.053Z,1460
2017-06-02T04:28:58.721Z,1508
2017-06-02T04:29:58.707Z,1536
2017-06-02T04:30:58.384Z,1564
2017-06-02T04:31:59.005Z,1588
2017-06-02T04:32:58.372Z,1604
2017-06-02T04:33:58.662Z,1644
2017-06-02T04:34:58.652Z,1716
2017-06-02T04:35:58.646Z,1788
2017-06-02T04:36:58.952Z,1848
2017-06-02T04:37:58.324Z,1860
2017-06-02T04:38:58.616Z,1860
2017-06-02T04:39:57.974Z,1860
2017-06-02T04:40:58.908Z,1832
2017-06-02T04:41:58.583Z,1824
2017-06-02T04:42:58.261Z,1824
2017-06-02T04:43:58.250Z,1872
2017-06-02T04:44:58.237Z,1884
2017-06-02T04:45:58.230Z,1864
2017-06-02T04:46:58.537Z,1856
2017-06-02T04:47:58.209Z,1836
2017-06-02T04:48:58.518Z,1816
2017-06-02T04:49:58.510Z,1828
2017-06-02T04:50:58.809Z,1900
2017-06-02T04:51:58.490Z,1964
2017-06-02T04:52:58.163Z,1976
2017-06-02T04:53:58.151Z,1960
2017-06-02T04:54:58.456Z,1932
2017-06-02T04:55:58.451Z,1900
2017-06-02T04:56:58.126Z,1832
2017-06-02T04:57:58.422Z,1768
2017-06-02T04:58:57.787Z,1712
2017-06-02T04:59:58.721Z,1692
2017-06-02T05:00:58.083Z,1732
2017-06-02T05:01:58.072Z,1788
2017-06-02T05:02:58.690Z,1868
2017-06-02T05:03:58.374Z,1996
2017-06-02T05:04:58.091Z,2116
2017-06-02T05:05:58.350Z,2240
2017-06-02T05:06:58.348Z,2448
2017-06-02T05:07:58.330Z,2640
2017-06-02T05:08:58.318Z,2736
2017-06-02T05:09:57.998Z,2848
2017-06-02T05:10:58.614Z,2876
2017-06-02T05:11:58.603Z,2728
2017-06-02T05:12:57.964Z,2604
2017-06-02T05:13:58.273Z,2492
2017-06-02T05:14:57.638Z,2380
2017-06-02T05:15:58.255Z,2348
2017-06-02T05:16:57.925Z,2316
2017-06-02T05:17:58.230Z,2320
2017-06-02T05:18:58.225Z,2336
2017-06-02T05:19:58.263Z,2392
2017-06-02T05:20:57.897Z,2512
2017-06-02T05:21:57.876Z,2668
2017-06-02T05:22:57.868Z,2832
2017-06-02T05:23:58.175Z,3008
2017-06-02T05:24:58.170Z,3128
2017-06-02T05:25:57.525Z,3256
2017-06-02T05:26:57.520Z,3312
2017-06-02T05:27:58.133Z,3164
2017-06-02T05:28:57.497Z,2964
2017-06-02T05:29:58.114Z,2912
2017-06-02T05:30:58.107Z,3020
2017-06-02T05:31:58.101Z,3184
2017-06-02T05:32:57.782Z,3304
2017-06-02T05:33:58.080Z,3304
2017-06-02T05:34:57.754Z,3220
2017-06-02T05:35:57.752Z,3112
2017-06-02T05:36:58.373Z,3000
2017-06-02T05:37:58.053Z,2932
2017-06-02T05:38:57.724Z,2960
2017-06-02T05:39:58.342Z,3020
2017-06-02T05:40:57.697Z,3064
2017-06-02T05:41:58.012Z,3024
2017-06-02T05:42:57.989Z,3000
2017-06-02T05:43:57.668Z,3044
2017-06-02T05:44:57.986Z,3116
2017-06-02T05:45:58.283Z,3132
2017-06-02T05:46:57.642Z,3140
2017-06-02T05:47:58.268Z,3180
2017-06-02T05:48:57.632Z,3204
2017-06-02T05:49:57.624Z,3228
2017-06-02T05:50:57.926Z,3248
2017-06-02T05:51:58.235Z,3260
2017-06-02T05:52:57.912Z,3288
2017-06-02T05:53:57.582Z,3308
2017-06-02T05:54:58.203Z,3320
2017-06-02T05:55:57.877Z,3348
2017-06-02T05:56:57.867Z,3360
2017-06-02T05:57:57.858Z,3368
2017-06-02T05:58:58.165Z,3360
2017-06-02T05:59:57.854Z,3368
2017-06-02T06:00:57.852Z,3396
2017-06-02T06:01:57.569Z,3416
2017-06-02T06:02:57.838Z,3432
2017-06-02T06:03:57.503Z,3444
2017-06-02T06:04:57.168Z,3456
2017-06-02T06:05:58.102Z,3448
2017-06-02T06:06:58.097Z,3456
2017-06-02T06:07:57.772Z,3484
2017-06-02T06:08:57.446Z,3496
2017-06-02T06:09:57.754Z,5320
2017-06-02T06:10:57.114Z,8468
2017-06-02T06:11:58.115Z,9540
2017-06-02T06:12:57.415Z,7636
2017-06-02T06:13:57.092Z,5420
2017-06-02T06:14:58.025Z,4608
2017-06-02T06:15:57.911Z,5068
2017-06-02T06:16:57.065Z,6644
2017-06-02T06:17:57.057Z,10244
2017-06-02T06:18:57.675Z,9440
2017-06-02T06:19:57.674Z,5240
2017-06-02T06:20:57.033Z,3680
2017-06-02T06:21:57.970Z,3712
2017-06-02T06:22:57.022Z,3704
2017-06-02T06:23:57.638Z,3724
2017-06-02T06:24:57.639Z,3756
2017-06-02T06:25:57.623Z,3800
2017-06-02T06:26:57.615Z,3836
2017-06-02T06:27:57.920Z,3852
2017-06-02T06:28:57.604Z,3864
2017-06-02T06:29:57.593Z,3864
2017-06-02T06:30:57.584Z,3872
2017-06-02T06:31:57.598Z,3892
2017-06-02T06:32:57.887Z,3912
2017-06-02T06:33:57.873Z,3936
2017-06-02T06:34:57.555Z,3964
2017-06-02T06:35:57.238Z,3996
2017-06-02T06:36:57.227Z,4032
2017-06-02T06:37:57.230Z,4072
2017-06-02T06:38:57.220Z,4112
2017-06-02T06:39:57.214Z,4152
2017-06-02T06:40:57.522Z,4220
2017-06-02T06:41:57.509Z,4288
2017-06-02T06:42:56.869Z,4348
2017-06-02T06:43:57.183Z,4396
2017-06-02T06:44:57.799Z,4452
2017-06-02T06:45:57.561Z,7788
2017-06-02T06:46:57.790Z,13728
2017-06-02T06:47:57.463Z,17568
2017-06-02T06:48:57.453Z,17024
2017-06-02T06:49:57.445Z,16288
2017-06-02T06:50:57.442Z,15776
2017-06-02T06:51:57.116Z,16000
2017-06-02T06:52:57.122Z,17280
2017-06-02T06:53:57.732Z,15360
2017-06-02T06:54:57.411Z,10200
2017-06-02T06:55:57.098Z,5740
2017-06-02T06:56:57.087Z,5288
2017-06-02T06:57:57.391Z,5276
2017-06-02T06:58:57.386Z,5292
2017-06-02T06:59:56.758Z,5308
2017-06-02T07:00:57.066Z,5336
2017-06-02T07:01:57.691Z,5404
2017-06-02T07:02:57.370Z,5544
2017-06-02T07:03:57.361Z,6484
2017-06-02T07:04:57.358Z,10616
2017-06-02T07:05:56.722Z,14592
2017-06-02T07:06:57.350Z,14668
2017-06-02T07:07:56.714Z,15492
2017-06-02T07:08:57.651Z,22016
2017-06-02T07:09:57.330Z,23552
2017-06-02T07:10:57.378Z,24512
2017-06-02T07:11:57.007Z,24544
2017-06-02T07:12:57.635Z,22912
2017-06-02T07:13:57.309Z,22048
2017-06-02T07:14:56.681Z,23104
2017-06-02T07:15:57.619Z,23520
2017-06-02T07:16:57.297Z,24416
2017-06-02T07:17:57.296Z,25536
2017-06-02T07:18:57.605Z,23424
2017-06-02T07:19:57.613Z,24416
2017-06-02T07:20:57.288Z,25408
2017-06-02T07:21:57.348Z,26976
2017-06-02T07:22:57.277Z,28192
2017-06-02T07:23:56.649Z,27360
2017-06-02T07:24:57.272Z,26912
2017-06-02T07:25:57.580Z,31200
2017-06-02T07:26:56.953Z,34816
2017-06-02T07:27:57.255Z,36032
2017-06-02T07:28:57.253Z,34848
2017-06-02T07:29:57.566Z,34400
2017-06-02T07:30:56.944Z,34912
2017-06-02T07:31:56.933Z,34464
2017-06-02T07:32:57.242Z,34944
2017-06-02T07:33:57.242Z,35776
2017-06-02T07:34:57.239Z,37728
2017-06-02T07:35:57.236Z,37952
2017-06-02T07:36:57.238Z,36256
2017-06-02T07:37:57.598Z,35808
2017-06-02T07:38:56.914Z,37728
2017-06-02T07:39:57.241Z,39968
2017-06-02T07:40:57.233Z,41824
2017-06-02T07:41:56.918Z,41824
2017-06-02T07:42:57.535Z,41696
2017-06-02T07:43:57.221Z,38784
2017-06-02T07:44:57.216Z,35296
2017-06-02T07:45:57.221Z,32768
2017-06-02T07:46:57.214Z,33376
2017-06-02T07:47:57.529Z,37952
2017-06-02T07:48:56.911Z,41504
2017-06-02T07:49:56.908Z,40672
2017-06-02T07:50:57.540Z,36928
2017-06-02T07:51:56.957Z,34176
2017-06-02T07:52:57.209Z,31520
2017-06-02T07:53:56.901Z,30816
2017-06-02T07:54:56.930Z,32608
2017-06-02T07:55:57.534Z,37120
2017-06-02T07:56:57.234Z,42112
2017-06-02T07:57:57.218Z,42816
2017-06-02T07:58:56.908Z,40384
2017-06-02T07:59:56.897Z,37184
2017-06-02T08:00:56.907Z,35520
2017-06-02T08:01:57.210Z,36224
2017-06-02T08:02:57.532Z,37344
2017-06-02T08:03:57.216Z,37792
2017-06-02T08:04:56.590Z,40192
2017-06-02T08:05:57.221Z,42848
2017-06-02T08:06:57.553Z,43424
2017-06-02T08:07:57.611Z,41920
2017-06-02T08:08:56.594Z,37696
2017-06-02T08:09:57.228Z,35424
2017-06-02T08:10:57.224Z,34720
2017-06-02T08:11:57.279Z,33920
2017-06-02T08:12:57.231Z,31968
2017-06-02T08:13:56.920Z,26976
2017-06-02T08:14:57.227Z,32736
2017-06-02T08:15:57.544Z,26400
2017-06-02T08:16:57.750Z,22272
2017-06-02T08:17:57.550Z,31424
2017-06-02T08:18:56.617Z,29952
2017-06-02T08:19:56.922Z,35008
2017-06-02T08:20:57.243Z,36352
2017-06-02T08:21:57.606Z,29824
2017-06-02T08:22:56.924Z,27456
2017-06-02T08:23:56.924Z,31712
2017-06-02T08:24:57.558Z,31136
2017-06-02T08:25:56.944Z,33504
2017-06-02T08:26:56.636Z,39616
2017-06-02T08:27:57.262Z,44384
2017-06-02T08:28:57.580Z,50656
2017-06-02T08:29:57.304Z,56192
2017-06-02T08:30:57.577Z,57600
2017-06-02T08:31:57.249Z,55936
2017-06-02T08:32:57.251Z,49632
2017-06-02T08:33:57.453Z,43840
2017-06-02T08:34:57.247Z,40800
2017-06-02T08:35:56.935Z,39968
2017-06-02T08:36:57.565Z,42464
2017-06-02T08:37:57.255Z,47584
2017-06-02T08:38:57.565Z,53952
2017-06-02T08:39:56.940Z,57632
2017-06-02T08:40:56.630Z,58336
2017-06-02T08:41:56.947Z,55264
2017-06-02T08:42:57.547Z,50784
2017-06-02T08:43:57.340Z,49056
2017-06-02T08:44:57.268Z,48640
2017-06-02T08:45:57.303Z,48928
2017-06-02T08:46:57.430Z,50688
2017-06-02T08:47:57.001Z,49440
2017-06-02T08:48:56.650Z,47232
2017-06-02T08:49:57.595Z,57248
2017-06-02T08:50:57.286Z,38048
2017-06-02T08:51:57.290Z,40896
2017-06-02T08:52:56.983Z,24960
2017-06-02T08:53:57.296Z,17088
2017-06-02T08:54:57.607Z,25088
2017-06-02T08:55:57.009Z,31328
2017-06-02T08:56:57.296Z,36192
2017-06-02T08:57:57.612Z,14572
2017-06-02T08:58:56.979Z,29536
2017-06-02T08:59:56.999Z,36704
2017-06-02T09:00:57.013Z,48096
2017-06-02T09:01:57.623Z,22688
2017-06-02T09:02:56.985Z,23008
2017-06-02T09:03:56.675Z,11700
2017-06-02T09:04:57.309Z,11076
2017-06-02T09:05:57.303Z,11324
2017-06-02T09:06:56.996Z,12308
2017-06-02T09:07:56.994Z,14332
2017-06-02T09:08:57.625Z,14660
2017-06-02T09:09:57.621Z,13552
2017-06-02T09:10:57.309Z,16864
2017-06-02T09:11:56.994Z,29440
2017-06-02T09:12:57.307Z,35264
2017-06-02T09:13:57.313Z,19776
2017-06-02T09:14:56.676Z,53472
2017-06-02T09:15:57.307Z,26208
2017-06-02T09:16:57.311Z,54176
2017-06-02T09:17:57.619Z,54176
2017-06-02T09:18:56.992Z,54624
2017-06-02T09:19:57.309Z,51168
2017-06-02T09:20:56.999Z,50016
2017-06-02T09:21:57.000Z,46272
2017-06-02T09:22:57.311Z,25856
2017-06-02T09:23:57.311Z,45600
2017-06-02T09:24:56.682Z,45120
2017-06-02T09:25:57.314Z,67808
2017-06-02T09:26:57.017Z,39680
2017-06-02T09:27:57.004Z,37888
2017-06-02T09:28:57.320Z,46496
2017-06-02T09:29:57.327Z,64704
2017-06-02T09:30:57.003Z,71296
2017-06-02T09:31:57.322Z,28512
2017-06-02T09:32:57.014Z,52288
2017-06-02T09:33:57.336Z,61888
2017-06-02T09:34:57.645Z,60288
2017-06-02T09:35:57.330Z,63456
2017-06-02T09:36:57.648Z,64000
2017-06-02T09:37:57.022Z,60832
2017-06-02T09:38:57.354Z,60768
2017-06-02T09:39:57.030Z,61920
2017-06-02T09:40:57.038Z,63264
2017-06-02T09:41:57.358Z,51392
2017-06-02T09:42:57.039Z,65920
2017-06-02T09:43:56.733Z,61184
2017-06-02T09:44:57.364Z,70368
2017-06-02T09:45:57.364Z,69824
2017-06-02T09:46:57.360Z,70336
2017-06-02T09:47:57.055Z,69536
2017-06-02T09:48:57.367Z,68480
2017-06-02T09:49:57.370Z,69696
2017-06-02T09:50:57.067Z,71520
2017-06-02T09:51:57.063Z,73952
2017-06-02T09:52:57.116Z,73664
2017-06-02T09:53:57.699Z,73088
2017-06-02T09:54:57.385Z,72800
2017-06-02T09:55:57.703Z,71296
2017-06-02T09:56:57.395Z,68384
2017-06-02T09:57:57.082Z,65312
2017-06-02T09:58:57.737Z,63552
2017-06-02T09:59:57.405Z,62624
2017-06-02T10:00:56.787Z,62208
2017-06-02T10:01:57.106Z,64288
2017-06-02T10:02:57.152Z,67264
2017-06-02T10:03:57.422Z,69600
2017-06-02T10:04:57.424Z,72448
2017-06-02T10:05:57.428Z,72800
2017-06-02T10:06:57.437Z,74464
2017-06-02T10:07:57.439Z,75008
2017-06-02T10:08:57.127Z,73472
2017-06-02T10:09:57.134Z,73088
2017-06-02T10:10:57.141Z,71104
2017-06-02T10:11:57.469Z,70656
2017-06-02T10:12:57.775Z,70624
2017-06-02T10:13:57.151Z,71232
2017-06-02T10:14:57.474Z,71552
2017-06-02T10:15:57.479Z,72480
2017-06-02T10:16:57.363Z,73248
2017-06-02T10:17:57.798Z,73984
2017-06-02T10:18:57.489Z,75680
2017-06-02T10:19:57.495Z,78016
2017-06-02T10:20:56.871Z,80736
2017-06-02T10:21:57.193Z,84384
2017-06-02T10:22:57.195Z,85888
2017-06-02T10:23:57.194Z,85152
2017-06-02T10:24:57.826Z,85824
2017-06-02T10:25:57.205Z,83264
2017-06-02T10:26:57.524Z,78464
2017-06-02T10:27:57.217Z,72096
2017-06-02T10:28:57.532Z,67200
2017-06-02T10:29:57.542Z,65984
2017-06-02T10:30:57.859Z,66912
2017-06-02T10:31:57.550Z,68096
2017-06-02T10:32:57.237Z,72416
2017-06-02T10:33:57.560Z,77472
2017-06-02T10:34:57.569Z,77856
2017-06-02T10:35:57.579Z,71552
2017-06-02T10:36:57.597Z,64000
2017-06-02T10:37:57.265Z,59616
2017-06-02T10:38:57.279Z,55744
2017-06-02T10:39:57.592Z,53568
2017-06-02T10:40:57.906Z,59552
2017-06-02T10:41:57.918Z,70176
2017-06-02T10:42:57.293Z,78784
2017-06-02T10:43:57.301Z,82688
2017-06-02T10:44:57.297Z,82208
2017-06-02T10:45:57.305Z,78464
2017-06-02T10:46:57.632Z,69472
2017-06-02T10:47:57.635Z,56448
2017-06-02T10:48:57.319Z,47808
2017-06-02T10:49:57.322Z,45344
2017-06-02T10:50:57.648Z,47744
2017-06-02T10:51:57.648Z,56064
2017-06-02T10:52:57.335Z,66112
2017-06-02T10:53:57.656Z,78496
2017-06-02T10:54:57.669Z,88768
2017-06-02T10:55:57.668Z,96768
2017-06-02T10:56:57.045Z,100288
2017-06-02T10:57:57.995Z,100480
2017-06-02T10:58:57.682Z,94912
2017-06-02T10:59:57.687Z,86944
2017-06-02T11:00:58.008Z,80096
2017-06-02T11:01:57.706Z,74368
2017-06-02T11:02:58.022Z,69824
2017-06-02T11:03:57.713Z,64480
2017-06-02T11:04:57.402Z,61728
2017-06-02T11:05:58.036Z,59584
2017-06-02T11:06:57.734Z,62176
2017-06-02T11:07:57.104Z,64768
2017-06-02T11:08:57.435Z,64896
2017-06-02T11:09:57.434Z,66656
2017-06-02T11:10:57.122Z,69856
2017-06-02T11:11:57.757Z,72128
2017-06-02T11:12:57.760Z,73312
2017-06-02T11:13:57.770Z,73696
2017-06-02T11:14:58.084Z,75136
2017-06-02T11:15:58.093Z,75968
2017-06-02T11:16:57.782Z,73856
2017-06-02T11:17:57.789Z,67904
2017-06-02T11:18:58.112Z,61056
2017-06-02T11:19:57.801Z,56640
2017-06-02T11:20:58.119Z,52800
2017-06-02T11:21:57.491Z,50336
2017-06-02T11:22:57.817Z,52800
2017-06-02T11:23:58.135Z,59968
2017-06-02T11:24:57.825Z,70048
2017-06-02T11:25:57.831Z,79648
2017-06-02T11:26:57.205Z,85824
2017-06-02T11:27:57.523Z,90272
2017-06-02T11:28:57.533Z,92000
2017-06-02T11:29:57.544Z,87968
2017-06-02T11:30:57.540Z,79584
2017-06-02T11:31:58.178Z,70240
2017-06-02T11:32:57.547Z,62240
2017-06-02T11:33:57.606Z,57024
2017-06-02T11:34:58.195Z,55680
2017-06-02T11:35:57.568Z,54592
2017-06-02T11:36:57.884Z,58688
2017-06-02T11:37:57.888Z,68576
2017-06-02T11:38:57.896Z,81024
2017-06-02T11:39:57.905Z,92704
2017-06-02T11:40:58.225Z,102368
2017-06-02T11:41:57.921Z,109056
2017-06-02T11:42:57.602Z,108192
2017-06-02T11:43:57.622Z,100832
2017-06-02T11:44:58.254Z,88352
2017-06-02T11:45:57.625Z,72352
2017-06-02T11:46:58.370Z,56960
2017-06-02T11:47:57.704Z,44224
2017-06-02T11:48:58.009Z,34688
2017-06-02T11:49:58.278Z,36064
2017-06-02T11:50:58.277Z,45888
2017-06-02T11:51:58.345Z,58752
2017-06-02T11:52:57.679Z,72032
2017-06-02T11:53:58.293Z,86016
2017-06-02T11:54:58.299Z,91520
2017-06-02T11:55:57.678Z,90816
2017-06-02T11:56:57.686Z,89440
2017-06-02T11:57:58.020Z,79712
2017-06-02T11:58:58.105Z,73472
2017-06-02T11:59:57.706Z,64800
2017-06-02T12:00:57.710Z,56480
2017-06-02T12:01:58.035Z,53824
2017-06-02T12:02:58.038Z,53120
2017-06-02T12:03:58.097Z,54752
2017-06-02T12:04:57.726Z,60864
2017-06-02T12:05:58.368Z,69824
2017-06-02T12:06:58.371Z,77920
2017-06-02T12:07:58.385Z,84928
2017-06-02T12:08:58.383Z,89440
2017-06-02T12:09:57.759Z,91072
2017-06-02T12:10:57.766Z,88160
2017-06-02T12:11:57.767Z,82144
2017-06-02T12:12:57.773Z,75264
2017-06-02T12:13:58.094Z,66848
2017-06-02T12:14:58.099Z,61760
2017-06-02T12:15:57.792Z,60960
2017-06-02T12:16:58.000Z,61184
2017-06-02T12:17:58.428Z,62176
2017-06-02T12:18:58.122Z,66400
2017-06-02T12:19:58.128Z,69792
2017-06-02T12:20:57.817Z,70784
2017-06-02T12:21:58.134Z,68928
2017-06-02T12:22:58.460Z,66656
2017-06-02T12:23:57.839Z,63328
2017-06-02T12:24:57.839Z,56608
2017-06-02T12:25:58.155Z,53696
2017-06-02T12:26:58.167Z,53280
2017-06-02T12:27:57.852Z,57312
2017-06-02T12:28:58.486Z,62592
2017-06-02T12:29:58.501Z,66304
2017-06-02T12:30:57.876Z,70848
2017-06-02T12:31:58.505Z,73440
2017-06-02T12:32:58.194Z,72640
2017-06-02T12:33:58.202Z,66976
2017-06-02T12:34:58.205Z,60000
2017-06-02T12:35:57.897Z,57024
2017-06-02T12:36:58.530Z,56320
2017-06-02T12:37:57.909Z,57344
2017-06-02T12:38:57.597Z,58368
2017-06-02T12:39:57.969Z,60224
2017-06-02T12:40:57.920Z,63776
2017-06-02T12:41:58.565Z,63168
2017-06-02T12:42:58.261Z,61536
2017-06-02T12:43:58.259Z,57536
2017-06-02T12:44:58.573Z,53504
2017-06-02T12:45:57.951Z,52512
2017-06-02T12:46:57.955Z,55296
2017-06-02T12:47:57.960Z,58496
2017-06-02T12:48:57.962Z,62976
2017-06-02T12:49:58.282Z,71616
2017-06-02T12:50:57.972Z,74400
2017-06-02T12:51:57.661Z,74304
2017-06-02T12:52:57.983Z,68448
2017-06-02T12:53:58.309Z,61632
2017-06-02T12:54:58.632Z,56192
2017-06-02T12:55:58.331Z,47296
2017-06-02T12:56:58.317Z,47392
2017-06-02T12:57:58.017Z,52000
2017-06-02T12:58:57.703Z,59584
2017-06-02T12:59:58.335Z,69120
2017-06-02T13:00:58.656Z,76160
2017-06-02T13:01:58.042Z,79936
2017-06-02T13:02:58.671Z,81536
2017-06-02T13:03:58.671Z,83136
2017-06-02T13:04:58.671Z,77952
2017-06-02T13:05:58.365Z,73664
2017-06-02T13:06:58.386Z,74656
2017-06-02T13:07:58.058Z,72896
2017-06-02T13:08:58.071Z,70720
2017-06-02T13:09:58.081Z,72384
2017-06-02T13:10:58.389Z,69376
2017-06-02T13:11:58.392Z,70432
2017-06-02T13:12:58.396Z,70080
2017-06-02T13:13:58.407Z,72960
2017-06-02T13:14:58.406Z,70752
2017-06-02T13:15:58.730Z,71232
2017-06-02T13:16:58.731Z,67616
2017-06-02T13:17:58.102Z,64992
2017-06-02T13:18:58.109Z,60928
2017-06-02T13:19:58.741Z,51776
2017-06-02T13:20:58.744Z,26080
2017-06-02T13:21:57.805Z,67488
2017-06-02T13:22:58.440Z,71680
2017-06-02T13:23:58.487Z,74240
2017-06-02T13:24:58.816Z,76896